createdAt,value
2022-08-04T00:04:00.712Z,21.40
2022-08-04T00:06:51.536Z,21.40
2022-08-04T00:09:47.537Z,21.40
2022-08-04T00:12:17.888Z,21.30
2022-08-04T00:14:57.245Z,21.30
2022-08-04T00:17:47.719Z,21.20
2022-08-04T00:20:28.199Z,21.10
2022-08-04T00:22:57.999Z,21.10
2022-08-04T00:25:26.493Z,21.00
2022-08-04T00:27:55.499Z,20.90
2022-08-04T00:30:23.366Z,20.90
2022-08-04T00:32:52.673Z,20.90
2022-08-04T00:35:20.544Z,20.90
2022-08-04T00:37:48.524Z,20.90
2022-08-04T00:40:37.758Z,20.90
2022-08-04T00:43:35.729Z,20.90
2022-08-04T00:46:18.246Z,20.90
2022-08-04T00:49:07.152Z,20.90
2022-08-04T00:52:30.932Z,20.80
2022-08-04T00:55:12.838Z,20.80
2022-08-04T00:58:26.083Z,20.80
2022-08-04T01:01:12.022Z,20.80
2022-08-04T01:03:51.943Z,20.80
2022-08-04T01:06:56.096Z,20.70
2022-08-04T01:09:48.493Z,20.70
2022-08-04T01:12:41.350Z,20.60
2022-08-04T01:15:59.697Z,20.60
2022-08-04T01:18:34.899Z,20.60
2022-08-04T01:21:29.597Z,20.50
2022-08-04T01:24:30.224Z,20.50
2022-08-04T01:27:12.091Z,20.50
2022-08-04T01:29:50.744Z,20.40
2022-08-04T01:32:32.026Z,20.50
2022-08-04T01:35:48.017Z,20.50
2022-08-04T01:38:21.363Z,20.40
2022-08-04T01:40:54.876Z,20.50
2022-08-04T01:43:24.570Z,20.50
2022-08-04T01:45:59.010Z,20.50
2022-08-04T01:48:28.303Z,20.50
2022-08-04T01:51:03.426Z,20.50
2022-08-04T01:53:34.106Z,20.60
2022-08-04T01:56:03.091Z,20.70
2022-08-04T01:58:32.570Z,20.70
2022-08-04T02:01:08.193Z,20.80
2022-08-04T02:04:22.029Z,20.90
2022-08-04T02:06:45.325Z,20.90
2022-08-04T02:09:17.869Z,20.90
2022-08-04T02:12:02.074Z,20.90
2022-08-04T02:14:41.075Z,21.00
2022-08-04T02:17:26.555Z,21.00
2022-08-04T02:20:09.070Z,21.00
2022-08-04T02:22:46.995Z,21.10
2022-08-04T02:25:20.506Z,21.10
2022-08-04T02:28:00.349Z,21.10
2022-08-04T02:30:34.358Z,21.20
2022-08-04T02:33:04.686Z,21.20
2022-08-04T02:35:38.912Z,21.20
2022-08-04T02:38:27.902Z,21.20
2022-08-04T02:41:01.839Z,21.30
2022-08-04T02:43:50.813Z,21.30
2022-08-04T02:46:21.770Z,21.30
2022-08-04T02:48:53.324Z,21.40
2022-08-04T02:51:30.760Z,21.40
2022-08-04T02:54:02.270Z,21.40
2022-08-04T02:56:32.855Z,21.40
2022-08-04T02:59:12.110Z,21.50
2022-08-04T03:01:42.581Z,21.50
2022-08-04T03:05:04.204Z,21.50
2022-08-04T03:08:00.751Z,21.50
2022-08-04T03:11:08.013Z,21.50
2022-08-04T03:13:47.489Z,21.50
2022-08-04T03:17:01.800Z,21.50
2022-08-04T03:20:01.585Z,21.50
2022-08-04T03:23:15.307Z,21.50
2022-08-04T03:26:01.078Z,21.50
2022-08-04T03:29:07.059Z,21.40
2022-08-04T03:31:34.428Z,21.40
2022-08-04T03:34:05.735Z,21.40
2022-08-04T03:36:55.164Z,21.40
2022-08-04T03:40:08.939Z,21.40
2022-08-04T03:43:57.154Z,21.40
2022-08-04T03:46:45.476Z,21.40
2022-08-04T03:49:58.886Z,21.40
2022-08-04T03:53:10.881Z,21.30
2022-08-04T03:56:10.895Z,21.30
2022-08-04T03:59:05.831Z,21.30
2022-08-04T04:02:02.510Z,21.30
2022-08-04T04:04:52.260Z,21.30
2022-08-04T04:08:18.929Z,21.30
2022-08-04T04:11:00.181Z,21.30
2022-08-04T04:13:57.619Z,21.30
2022-08-04T04:16:59.176Z,21.40
2022-08-04T04:19:47.254Z,21.30
2022-08-04T04:22:48.475Z,21.30
2022-08-04T04:25:47.388Z,21.30
2022-08-04T04:28:45.692Z,21.20
2022-08-04T04:31:30.122Z,21.20
2022-08-04T04:34:29.798Z,21.10
2022-08-04T04:37:35.009Z,21.00
2022-08-04T04:40:09.308Z,21.00
2022-08-04T04:43:05.293Z,20.90
2022-08-04T04:46:10.288Z,20.90
2022-08-04T04:49:15.744Z,20.90
2022-08-04T04:51:54.081Z,20.90
2022-08-04T04:54:36.858Z,20.90
2022-08-04T04:57:53.951Z,20.90
2022-08-04T05:00:16.164Z,20.90
2022-08-04T05:03:00.811Z,20.90
2022-08-04T05:05:29.740Z,20.90
2022-08-04T05:08:44.686Z,21.00
2022-08-04T05:11:25.031Z,21.00
2022-08-04T05:14:37.037Z,21.00
2022-08-04T05:17:17.031Z,21.10
2022-08-04T05:20:09.084Z,21.10
2022-08-04T05:22:55.882Z,21.20
2022-08-04T05:25:28.866Z,21.30
2022-08-04T05:28:08.520Z,21.30
2022-08-04T05:30:52.135Z,21.40
2022-08-04T05:33:39.266Z,21.40
2022-08-04T05:36:20.384Z,21.50
2022-08-04T05:39:00.102Z,21.60
2022-08-04T05:41:32.337Z,21.70
2022-08-04T05:44:18.746Z,21.70
2022-08-04T05:46:53.649Z,21.80
2022-08-04T05:49:29.653Z,21.90
2022-08-04T05:52:03.343Z,22.00
2022-08-04T05:54:34.628Z,22.00
2022-08-04T05:57:06.194Z,22.10
2022-08-04T05:59:37.799Z,22.20
2022-08-04T06:02:09.208Z,22.20
2022-08-04T06:04:41.762Z,22.30
2022-08-04T06:07:11.635Z,22.40
2022-08-04T06:09:42.743Z,22.50
2022-08-04T06:12:25.775Z,22.60
2022-08-04T06:14:59.422Z,22.70
2022-08-04T06:19:57.377Z,22.70
2022-08-04T06:20:50.184Z,22.80
2022-08-04T06:23:21.099Z,22.90
2022-08-04T06:25:55.569Z,23.00
2022-08-04T06:28:24.318Z,23.10
2022-08-04T06:30:53.695Z,23.20
2022-08-04T06:33:27.714Z,23.30
2022-08-04T06:36:00.774Z,23.40
2022-08-04T06:38:31.178Z,23.40
2022-08-04T06:40:59.958Z,23.50
2022-08-04T06:43:29.569Z,23.60
2022-08-04T06:46:03.349Z,23.70
2022-08-04T06:48:33.388Z,23.70
2022-08-04T06:51:28.278Z,23.80
2022-08-04T06:53:50.953Z,23.90
2022-08-04T06:56:20.613Z,23.90
2022-08-04T06:58:50.569Z,24.00
2022-08-04T07:01:22.148Z,24.10
2022-08-04T07:03:50.880Z,24.20
2022-08-04T07:06:29.967Z,24.30
2022-08-04T07:09:05.408Z,24.40
2022-08-04T07:11:44.323Z,24.50
2022-08-04T07:14:17.984Z,24.70
2022-08-04T07:16:49.137Z,24.80
2022-08-04T07:19:19.335Z,24.90
2022-08-04T07:22:21.822Z,25.10
2022-08-04T07:24:38.430Z,25.20
2022-08-04T07:27:19.406Z,25.40
2022-08-04T07:30:08.436Z,25.60
2022-08-04T07:32:42.160Z,25.80
2022-08-04T07:35:14.774Z,26.00
2022-08-04T07:37:59.275Z,26.10
2022-08-04T07:40:27.798Z,26.30
2022-08-04T07:42:56.209Z,26.50
2022-08-04T07:45:26.603Z,26.70
2022-08-04T07:48:04.722Z,26.80
2022-08-04T07:50:35.551Z,26.90
2022-08-04T07:53:52.665Z,27.00
2022-08-04T07:55:53.877Z,27.00
2022-08-04T07:58:29.809Z,27.10
2022-08-04T08:03:31.450Z,26.90
2022-08-04T08:06:31.184Z,27.00
2022-08-04T08:08:48.693Z,27.00
2022-08-04T08:11:18.138Z,27.00
2022-08-04T08:13:47.747Z,27.00
2022-08-04T08:16:17.323Z,27.10
2022-08-04T08:18:49.876Z,27.10
2022-08-04T08:21:21.758Z,27.20
2022-08-04T08:23:51.482Z,27.30
2022-08-04T08:26:19.144Z,27.50
2022-08-04T08:28:47.986Z,27.60
2022-08-04T08:31:16.796Z,27.60
2022-08-04T08:33:46.829Z,27.60
2022-08-04T08:36:25.643Z,27.70
2022-08-04T08:39:06.789Z,27.80
2022-08-04T08:41:53.196Z,28.00
2022-08-04T08:44:37.929Z,28.10
2022-08-04T08:47:21.381Z,28.40
2022-08-04T08:50:31.266Z,28.60
2022-08-04T08:53:21.759Z,28.70
2022-08-04T08:56:41.164Z,28.80
2022-08-04T08:59:20.759Z,28.90
2022-08-04T09:02:07.569Z,29.10
2022-08-04T09:04:50.474Z,29.20
2022-08-04T09:07:58.520Z,29.30
2022-08-04T09:10:51.907Z,29.40
2022-08-04T09:13:47.732Z,29.40
2022-08-04T09:16:26.589Z,29.50
2022-08-04T09:19:05.179Z,29.50
2022-08-04T09:21:54.531Z,29.60
2022-08-04T09:25:02.972Z,29.70
2022-08-04T09:27:57.669Z,29.70
2022-08-04T09:30:43.763Z,29.60
2022-08-04T09:33:45.673Z,29.70
2022-08-04T09:36:41.827Z,29.80
2022-08-04T09:39:29.474Z,30.00
2022-08-04T09:42:34.159Z,30.10
2022-08-04T09:46:08.079Z,30.30
2022-08-04T09:48:52.469Z,30.30
2022-08-04T09:51:58.329Z,30.40
2022-08-04T09:54:30.673Z,30.30
2022-08-04T09:57:11.222Z,30.40
2022-08-04T10:00:04.173Z,30.50
2022-08-04T10:02:56.444Z,30.50
2022-08-04T10:05:27.738Z,30.60
2022-08-04T10:08:45.683Z,30.60
2022-08-04T10:11:33.783Z,30.60
2022-08-04T10:14:43.405Z,30.50
2022-08-04T10:17:18.871Z,30.30
2022-08-04T10:19:57.439Z,30.20
2022-08-04T10:22:29.826Z,30.00
2022-08-04T10:25:38.993Z,30.00
2022-08-04T10:28:11.183Z,29.90
2022-08-04T10:30:46.390Z,29.60
2022-08-04T10:33:25.053Z,29.50
2022-08-04T10:36:01.269Z,29.20
2022-08-04T10:38:40.926Z,28.90
2022-08-04T10:41:54.098Z,28.70
2022-08-04T10:44:57.641Z,28.50
2022-08-04T10:47:35.730Z,28.30
2022-08-04T10:50:05.722Z,28.10
2022-08-04T10:52:55.925Z,28.00
2022-08-04T10:56:07.417Z,27.80
2022-08-04T10:58:48.710Z,27.10
2022-08-04T11:02:01.322Z,26.40
2022-08-04T11:04:45.722Z,26.10
2022-08-04T11:07:23.911Z,25.70
2022-08-04T11:09:52.960Z,25.60
2022-08-04T11:12:28.782Z,25.60
2022-08-04T11:15:09.689Z,25.60
2022-08-04T11:17:42.127Z,25.60
2022-08-04T11:20:34.697Z,25.50
2022-08-04T11:23:12.183Z,25.50
2022-08-04T11:25:40.075Z,25.50
2022-08-04T11:28:26.013Z,25.40
2022-08-04T11:31:08.979Z,25.50
2022-08-04T11:34:04.640Z,25.40
2022-08-04T11:36:52.175Z,25.30
2022-08-04T11:39:30.353Z,25.10
2022-08-04T11:42:21.852Z,25.10
2022-08-04T11:45:08.593Z,25.10
2022-08-04T11:47:50.783Z,25.10
2022-08-04T11:50:27.660Z,25.00
2022-08-04T11:52:57.542Z,25.00
2022-08-04T11:55:31.139Z,24.90
2022-08-04T11:58:02.397Z,24.90
2022-08-04T12:00:32.629Z,24.90
2022-08-04T12:03:19.831Z,24.90
2022-08-04T12:06:10.320Z,24.80
2022-08-04T12:09:04.760Z,24.80
2022-08-04T12:11:51.149Z,24.90
2022-08-04T12:14:37.336Z,24.90
2022-08-04T12:17:11.173Z,24.90
2022-08-04T12:20:04.028Z,25.00
2022-08-04T12:23:00.133Z,25.20
2022-08-04T12:25:36.200Z,25.60
2022-08-04T12:28:15.226Z,25.90
2022-08-04T12:31:01.681Z,26.10
2022-08-04T12:34:09.255Z,26.30
2022-08-04T12:37:00.169Z,26.80
2022-08-04T12:39:30.608Z,27.30
2022-08-04T12:42:05.197Z,27.60
2022-08-04T12:44:39.117Z,27.90
2022-08-04T12:47:26.934Z,28.00
2022-08-04T12:50:02.903Z,28.00
2022-08-04T12:55:34.471Z,28.10
2022-08-04T12:58:43.330Z,28.00
2022-08-04T13:02:10.154Z,27.90
2022-08-04T13:04:17.103Z,27.80
2022-08-04T13:06:53.843Z,27.60
2022-08-04T13:09:24.257Z,27.40
2022-08-04T13:11:56.123Z,27.30
2022-08-04T13:14:27.535Z,27.30
2022-08-04T13:17:04.485Z,27.40
2022-08-04T13:19:41.614Z,27.50
2022-08-04T13:22:10.144Z,27.70
2022-08-04T13:24:56.321Z,27.90
2022-08-04T13:27:43.132Z,27.90
2022-08-04T13:30:17.083Z,27.90
2022-08-04T13:33:05.097Z,27.90
2022-08-04T13:35:56.035Z,28.00
2022-08-04T13:38:25.357Z,28.30
2022-08-04T13:40:54.380Z,28.40
2022-08-04T13:43:48.472Z,28.40
2022-08-04T13:46:41.262Z,28.60
2022-08-04T13:49:54.212Z,28.80
2022-08-04T13:52:11.242Z,29.00
2022-08-04T13:54:48.196Z,29.10
2022-08-04T13:57:31.489Z,29.20
2022-08-04T14:00:09.609Z,29.30
2022-08-04T14:02:59.246Z,29.70
2022-08-04T14:05:32.568Z,29.80
2022-08-04T14:08:13.032Z,30.10
2022-08-04T14:10:46.439Z,30.50
2022-08-04T14:13:17.377Z,30.70
2022-08-04T14:16:02.076Z,30.60
2022-08-04T14:18:32.914Z,30.70
2022-08-04T14:21:18.367Z,30.60
2022-08-04T14:23:56.606Z,30.70
2022-08-04T14:26:33.971Z,30.90
2022-08-04T14:29:26.526Z,31.30
2022-08-04T14:32:12.995Z,31.40
2022-08-04T14:34:46.861Z,31.30
2022-08-04T14:37:19.827Z,31.20
2022-08-04T14:40:08.944Z,30.90
2022-08-04T14:42:43.348Z,30.70
2022-08-04T14:45:12.426Z,30.60
2022-08-04T14:47:52.402Z,30.60
2022-08-04T14:50:33.109Z,30.60
2022-08-04T14:53:06.950Z,30.40
2022-08-04T14:55:35.634Z,30.30
2022-08-04T14:58:34.750Z,30.10
2022-08-04T15:01:00.133Z,30.10
2022-08-04T15:03:32.360Z,30.10
2022-08-04T15:06:07.896Z,30.00
2022-08-04T15:08:39.358Z,30.00
2022-08-04T15:11:10.815Z,29.80
2022-08-04T15:13:53.696Z,29.60
2022-08-04T15:16:22.868Z,29.70
2022-08-04T15:18:54.868Z,29.60
2022-08-04T15:21:28.762Z,29.60
2022-08-04T15:23:57.910Z,29.60
2022-08-04T15:26:43.620Z,29.50
2022-08-04T15:30:00.925Z,29.50
2022-08-04T15:32:31.033Z,29.30
2022-08-04T15:35:09.623Z,29.10
2022-08-04T15:37:50.135Z,29.00
2022-08-04T15:40:33.290Z,29.00
2022-08-04T15:43:26.871Z,28.90
2022-08-04T15:46:02.114Z,28.80
2022-08-04T15:48:48.611Z,28.70
2022-08-04T15:51:32.177Z,28.60
2022-08-04T15:54:02.630Z,28.50
2022-08-04T15:56:31.906Z,28.40
2022-08-04T15:58:59.549Z,28.30
2022-08-04T16:01:36.638Z,28.20
2022-08-04T16:04:25.820Z,28.10
2022-08-04T16:07:07.509Z,28.10
2022-08-04T16:09:45.297Z,28.20
2022-08-04T16:13:00.809Z,28.20
2022-08-04T16:16:03.379Z,28.20
2022-08-04T16:18:31.773Z,28.20
2022-08-04T16:21:08.646Z,28.20
2022-08-04T16:23:59.183Z,28.30
2022-08-04T16:26:45.393Z,28.20
2022-08-04T16:29:40.411Z,28.10
2022-08-04T16:32:16.244Z,28.10
2022-08-04T16:34:54.601Z,28.10
2022-08-04T16:37:34.281Z,28.10
2022-08-04T16:40:38.777Z,27.90
2022-08-04T16:43:18.674Z,27.90
2022-08-04T16:45:59.613Z,27.90
2022-08-04T16:48:31.604Z,27.80
2022-08-04T16:51:09.150Z,27.70
2022-08-04T16:53:52.916Z,27.60
2022-08-04T16:56:34.668Z,27.50
2022-08-04T16:59:12.057Z,27.40
2022-08-04T17:01:52.196Z,27.30
2022-08-04T17:04:30.360Z,27.20
2022-08-04T17:07:07.701Z,27.20
2022-08-04T17:09:38.129Z,27.00
2022-08-04T17:12:06.625Z,27.00
2022-08-04T17:14:38.930Z,26.90
2022-08-04T17:17:08.688Z,26.90
2022-08-04T17:19:38.340Z,26.90
2022-08-04T17:22:11.742Z,26.80
2022-08-04T17:24:41.284Z,26.70
2022-08-04T17:29:58.817Z,26.50
2022-08-04T17:32:27.180Z,26.30
2022-08-04T17:37:52.709Z,26.10
2022-08-04T17:40:25.476Z,26.00
2022-08-04T17:46:29.732Z,25.80
2022-08-04T17:49:17.873Z,25.80
2022-08-04T17:52:06.072Z,25.80
2022-08-04T17:54:40.603Z,25.80
2022-08-04T17:57:21.565Z,25.80
2022-08-04T18:02:54.960Z,25.80
2022-08-04T18:06:01.618Z,25.80
2022-08-04T18:08:39.192Z,25.70
2022-08-04T18:11:21.313Z,25.70
2022-08-04T18:13:57.933Z,25.70
2022-08-04T18:19:19.101Z,25.50
2022-08-04T18:22:00.374Z,25.40
2022-08-04T18:24:35.708Z,25.40
2022-08-04T18:27:21.949Z,25.30
2022-08-04T18:30:33.716Z,25.10
2022-08-04T18:33:04.207Z,24.90
2022-08-04T18:36:34.659Z,24.80
2022-08-04T18:38:26.546Z,24.70
2022-08-04T18:40:57.968Z,24.70
2022-08-04T18:43:27.841Z,24.60
2022-08-04T18:46:01.593Z,24.50
2022-08-04T18:48:36.710Z,24.40
2022-08-04T18:51:23.275Z,24.40
2022-08-04T18:53:54.878Z,24.30
2022-08-04T18:56:33.187Z,24.20
2022-08-04T18:59:02.866Z,24.10
2022-08-04T19:02:12.343Z,24.10
2022-08-04T19:04:33.212Z,24.00
2022-08-04T19:07:28.771Z,24.00
2022-08-04T19:12:45.135Z,23.90
2022-08-04T19:15:13.117Z,23.80
2022-08-04T19:17:55.099Z,23.70
2022-08-04T19:20:31.204Z,23.70
2022-08-04T19:24:30.338Z,23.70
2022-08-04T19:26:01.262Z,23.70
2022-08-04T19:28:34.440Z,23.60
2022-08-04T19:31:12.753Z,23.60
2022-08-04T19:33:58.951Z,23.50
2022-08-04T19:36:33.745Z,23.50
2022-08-04T19:39:11.245Z,23.40
2022-08-04T19:42:05.193Z,23.30
2022-08-04T19:44:30.845Z,23.20
2022-08-04T19:47:02.281Z,23.20
2022-08-04T19:50:05.055Z,23.20
2022-08-04T19:52:38.670Z,23.10
2022-08-04T19:55:10.608Z,23.10
2022-08-04T19:57:46.381Z,23.10
2022-08-04T20:00:33.973Z,23.10
2022-08-04T20:03:11.298Z,23.00
2022-08-04T20:05:54.848Z,23.00
2022-08-04T20:08:27.991Z,22.90
2022-08-04T20:10:56.073Z,22.90
2022-08-04T20:13:36.984Z,22.80
2022-08-04T20:16:28.341Z,22.80
2022-08-04T20:19:02.900Z,22.80
2022-08-04T20:21:54.415Z,22.80
2022-08-04T20:24:38.205Z,22.80
2022-08-04T20:27:14.842Z,22.70
2022-08-04T20:29:55.596Z,22.70
2022-08-04T20:32:27.210Z,22.70
2022-08-04T20:34:56.906Z,22.60
2022-08-04T20:37:54.754Z,22.60
2022-08-04T20:40:17.028Z,22.60
2022-08-04T20:42:47.770Z,22.60
2022-08-04T20:45:18.610Z,22.60
2022-08-04T20:47:54.191Z,22.50
2022-08-04T20:50:29.638Z,22.50
2022-08-04T20:52:58.594Z,22.50
2022-08-04T20:58:19.766Z,22.30
2022-08-04T21:00:57.069Z,22.30
2022-08-04T21:03:49.490Z,22.20
2022-08-04T21:06:15.792Z,22.20
2022-08-04T21:08:56.728Z,22.10
2022-08-04T21:11:32.641Z,22.10
2022-08-04T21:14:03.198Z,22.10
2022-08-04T21:16:54.229Z,22.00
2022-08-04T21:19:24.586Z,22.00
2022-08-04T21:21:55.657Z,21.80
2022-08-04T21:24:26.066Z,21.70
2022-08-04T21:26:57.201Z,21.60
2022-08-04T21:29:34.794Z,21.50
2022-08-04T21:32:05.949Z,21.50
2022-08-04T21:34:39.249Z,21.30
2022-08-04T21:37:11.203Z,21.30
2022-08-04T21:39:50.344Z,21.20
2022-08-04T21:42:42.815Z,21.20
2022-08-04T21:45:19.790Z,21.10
2022-08-04T21:47:49.689Z,20.90
2022-08-04T21:50:19.940Z,20.90
2022-08-04T21:52:48.419Z,20.90
2022-08-04T21:56:06.698Z,20.80
2022-08-04T21:58:40.709Z,20.70
2022-08-04T22:04:14.052Z,20.60
2022-08-04T22:06:51.691Z,20.40
2022-08-04T22:09:21.865Z,20.30
2022-08-04T22:11:51.585Z,20.30
2022-08-04T22:14:28.949Z,20.20
2022-08-04T22:17:01.881Z,20.10
2022-08-04T22:19:50.756Z,20.00
2022-08-04T22:22:25.717Z,20.00
2022-08-04T22:24:58.816Z,20.00
2022-08-04T22:27:47.223Z,20.10
2022-08-04T22:30:18.221Z,20.10
2022-08-04T22:32:47.938Z,20.10
2022-08-04T22:35:36.396Z,20.10
2022-08-04T22:38:20.838Z,20.10
2022-08-04T22:41:08.457Z,20.10
2022-08-04T22:43:38.304Z,20.10
2022-08-04T22:46:11.984Z,20.10
2022-08-04T22:48:43.463Z,20.10
2022-08-04T22:51:13.920Z,20.20
2022-08-04T22:53:48.771Z,20.20
2022-08-04T22:56:38.266Z,20.20
2022-08-04T22:59:11.100Z,20.10
2022-08-04T23:02:00.879Z,20.10
2022-08-04T23:04:30.169Z,20.10
2022-08-04T23:06:58.471Z,20.00
2022-08-04T23:09:49.659Z,20.00
2022-08-04T23:12:26.501Z,20.00
2022-08-04T23:14:57.335Z,20.00
2022-08-04T23:17:27.933Z,19.90
2022-08-04T23:19:58.980Z,19.80
2022-08-04T23:22:41.210Z,19.80
2022-08-04T23:25:16.964Z,19.80
2022-08-04T23:27:51.011Z,19.80
2022-08-04T23:30:24.746Z,19.80
2022-08-04T23:32:58.441Z,19.80
2022-08-04T23:35:26.455Z,19.80
2022-08-04T23:37:56.921Z,19.80
2022-08-04T23:40:49.875Z,19.80
2022-08-04T23:43:19.491Z,19.80
2022-08-04T23:46:04.699Z,19.80
2022-08-04T23:48:38.837Z,19.80
2022-08-04T23:51:14.173Z,19.80
2022-08-04T23:54:01.757Z,19.80
2022-08-04T23:56:38.108Z,19.80
2022-08-04T23:59:05.712Z,19.90
